| time (UTC) | temp C | wind direction | speed KPH | gust KPH | rain 1hr cm | rain 24hr cm | rain mn cm | humidity % | barometer mb |
| 20260507044552 | 12 | 23 | 0.0 | 3.2 | 0.00 | 0.00 | 0.00 | 88 | 1014.6 |
| 20260507044032 | 12 | 0 | 0.0 | 3.2 | 0.00 | 0.00 | 0.00 | 88 | 1014.6 |
| 20260507043531 | 12 | 0 | 0.0 | 3.2 | 0.00 | 0.00 | 0.00 | 88 | 1014.6 |
| 20260507043049 | 12 | 12 | 0.0 | 3.2 | 0.00 | 0.00 | 0.00 | 88 | 1014.7 |
| 20260507042531 | 12 | 0 | 0.0 | 3.2 | 0.00 | 0.00 | 0.00 | 88 | 1014.6 |
| 20260507042033 | 12 | 0 | 0.0 | 4.8 | 0.00 | 0.00 | 0.00 | 88 | 1014.6 |
| 20260507041549 | 12 | 0 | 0.0 | 4.8 | 0.00 | 0.00 | 0.00 | 88 | 1014.5 |
| 20260507041033 | 12 | 12 | 1.6 | 4.8 | 0.00 | 0.00 | 0.00 | 87 | 1014.3 |
| 20260507040533 | 12 | 16 | 3.2 | 4.8 | 0.00 | 0.00 | 0.00 | 87 | 1014.2 |
| 20260507040049 | 12 | 49 | 0.0 | 4.8 | 0.00 | 0.00 | 0.00 | 87 | 1014.2 |
| 20260507035531 | 12 | 38 | 1.6 | 6.4 | 0.00 | 0.00 | 0.00 | 87 | 1014.2 |
| 20260507035032 | 12 | 11 | 1.6 | 6.4 | 0.00 | 0.00 | 0.00 | 87 | 1014.1 |
| 20260507034547 | 12 | 5 | 3.2 | 6.4 | 0.00 | 0.00 | 0.00 | 87 | 1014.1 |
| 20260507034031 | 13 | 25 | 1.6 | 6.4 | 0.00 | 0.00 | 0.00 | 87 | 1014.2 |
| 20260507033533 | 13 | 5 | 1.6 | 9.7 | 0.00 | 0.00 | 0.00 | 87 | 1014.1 |
| 20260507033048 | 13 | 198 | 4.8 | 9.7 | 0.00 | 0.00 | 0.00 | 87 | 1014.1 |
| 20260507032534 | 12 | 201 | 6.4 | 12.9 | 0.00 | 0.00 | 0.00 | 87 | 1014.1 |
| 20260507032032 | 12 | 360 | 6.4 | 12.9 | 0.00 | 0.00 | 0.00 | 87 | 1014.1 |
| 20260507031547 | 12 | 205 | 6.4 | 12.9 | 0.00 | 0.00 | 0.00 | 88 | 1014.0 |
| 20260507031032 | 13 | 205 | 9.7 | 12.9 | 0.00 | 0.00 | 0.00 | 88 | 1014.1 |
| 20260507030532 | 13 | 190 | 6.4 | 9.7 | 0.00 | 0.00 | 0.00 | 89 | 1014.1 |
| 20260507030050 | 13 | 205 | 1.6 | 4.8 | 0.00 | 0.00 | 0.00 | 89 | 1014.0 |
| 20260507025530 | 13 | 44 | 0.0 | 3.2 | 0.00 | 0.03 | 0.00 | 89 | 1013.9 |
| 20260507025032 | 13 | 0 | 1.6 | 12.9 | 0.00 | 0.03 | 0.00 | 89 | 1013.9 |
| 20260507024549 | 13 | 0 | 1.6 | 12.9 | 0.00 | 0.03 | 0.00 | 89 | 1013.9 |
| 20260507024032 | 13 | 173 | 6.4 | 12.9 | 0.00 | 0.00 | 0.00 | 89 | 1013.9 |
| 20260507023531 | 13 | 166 | 4.8 | 12.9 | 0.00 | 0.00 | 0.00 | 89 | 1014.0 |
| 20260507023047 | 13 | 154 | 6.4 | 14.5 | 0.00 | 0.00 | 0.00 | 89 | 1013.8 |
| 20260507022532 | 13 | 112 | 8.0 | 14.5 | 0.00 | 0.00 | 0.00 | 89 | 1013.8 |
| 20260507022032 | 14 | 102 | 4.8 | 12.9 | 0.00 | 0.00 | 0.00 | 89 | 1013.8 |
| 20260507021547 | 13 | 102 | 6.4 | 14.5 | 0.00 | 0.00 | 0.00 | 89 | 1013.8 |
| 20260507021034 | 14 | 101 | 8.0 | 14.5 | 0.00 | 0.00 | 0.00 | 88 | 1013.8 |
| 20260507020532 | 14 | 87 | 4.8 | 11.3 | 0.00 | 0.00 | 0.00 | 89 | 1013.7 |
| 20260507020046 | 14 | 114 | 1.6 | 6.4 | 0.00 | 0.00 | 0.00 | 88 | 1013.7 |
| 20260507015534 | 14 | 0 | 1.6 | 6.4 | 0.00 | 0.03 | 0.00 | 88 | 1013.8 |
| 20260507015032 | 14 | 144 | 1.6 | 9.7 | 0.00 | 0.03 | 0.00 | 88 | 1013.7 |
| 20260507014554 | 14 | 134 | 3.2 | 12.9 | 0.00 | 0.03 | 0.00 | 88 | 1013.6 |
| 20260507014033 | 14 | 106 | 4.8 | 14.5 | 0.00 | 0.03 | 0.00 | 88 | 1013.5 |
| 20260507013531 | 14 | 99 | 6.4 | 16.1 | 0.00 | 0.03 | 0.00 | 88 | 1013.5 |
| 20260507013101 | 14 | 101 | 8.0 | 17.7 | 0.00 | 0.03 | 0.00 | 87 | 1013.5 |
| 20260507012531 | 14 | 80 | 9.7 | 17.7 | 0.00 | 0.03 | 0.00 | 87 | 1013.5 |
| 20260507012032 | 15 | 89 | 8.0 | 12.9 | 0.00 | 0.03 | 0.00 | 87 | 1013.5 |
| 20260507011548 | 14 | 90 | 4.8 | 9.7 | 0.00 | 0.03 | 0.00 | 86 | 1013.6 |
| 20260507011033 | 14 | 93 | 3.2 | 4.8 | 0.00 | 0.03 | 0.00 | 86 | 1013.6 |
| 20260507010532 | 14 | 100 | 1.6 | 4.8 | 0.00 | 0.03 | 0.00 | 86 | 1013.6 |
| 20260507010056 | 15 | 113 | 0.0 | 4.8 | 0.00 | 0.03 | 0.00 | 86 | 1013.6 |
| 20260507005532 | 15 | 0 | 0.0 | 4.8 | 0.00 | 0.03 | 0.00 | 86 | 1013.6 |
| 20260507005031 | 15 | 113 | 0.0 | 4.8 | 0.00 | 0.03 | 0.00 | 86 | 1013.6 |
| 20260507004547 | 15 | 112 | 1.6 | 4.8 | 0.00 | 0.03 | 0.00 | 86 | 1013.6 |
| 20260507004031 | 15 | 0 | 1.6 | 4.8 | 0.00 | 0.03 | 0.00 | 85 | 1013.7 |
| 20260507003533 | 15 | 0 | 0.0 | 3.2 | 0.00 | 0.03 | 0.00 | 85 | 1013.6 |
| 20260507003042 | 15 | 0 | 0.0 | 6.4 | 0.00 | 0.03 | 0.00 | 85 | 1013.7 |
| 20260507002531 | 15 | 126 | 3.2 | 11.3 | 0.00 | 0.03 | 0.00 | 84 | 1013.7 |
| 20260507002031 | 15 | 122 | 4.8 | 14.5 | 0.00 | 0.03 | 0.00 | 85 | 1013.6 |
| 20260507001552 | 15 | 115 | 8.0 | 14.5 | 0.00 | 0.03 | 0.00 | 84 | 1013.7 |
| 20260507001030 | 15 | 91 | 4.8 | 6.4 | 0.00 | 0.03 | 0.00 | 84 | 1013.7 |
| 20260507000532 | 15 | 97 | 1.6 | 6.4 | 0.00 | 0.03 | 0.00 | 83 | 1013.7 |
| 20260507000049 | 15 | 116 | 1.6 | 6.4 | 0.00 | 0.03 | 0.00 | 83 | 1013.8 |
| 20260506235531 | 15 | 107 | 3.2 | 6.4 | 0.00 | 0.03 | 0.00 | 82 | 1013.8 |
| 20260506235031 | 15 | 101 | 3.2 | 6.4 | 0.00 | 0.03 | 0.00 | 82 | 1013.8 |
| 20260506234548 | 15 | 97 | 1.6 | 4.8 | 0.00 | 0.03 | 0.00 | 82 | 1013.8 |
| 20260506234031 | 15 | 92 | 1.6 | 6.4 | 0.00 | 0.03 | 0.00 | 81 | 1013.7 |
| 20260506233532 | 15 | 97 | 1.6 | 6.4 | 0.00 | 0.03 | 0.00 | 81 | 1013.8 |
| 20260506233100 | 15 | 125 | 0.0 | 6.4 | 0.00 | 0.03 | 0.00 | 81 | 1013.8 |
| 20260506232531 | 15 | 0 | 1.6 | 9.7 | 0.00 | 0.03 | 0.00 | 81 | 1013.7 |
| 20260506232031 | 15 | 138 | 3.2 | 9.7 | 0.00 | 0.03 | 0.00 | 81 | 1013.7 |
| 20260506231546 | 15 | 90 | 6.4 | 9.7 | 0.00 | 0.03 | 0.00 | 80 | 1013.7 |
| 20260506231031 | 15 | 123 | 3.2 | 11.3 | 0.00 | 0.03 | 0.00 | 80 | 1013.9 |
| 20260506230531 | 16 | 113 | 3.2 | 11.3 | 0.00 | 0.03 | 0.00 | 79 | 1013.9 |
| 20260506225533 | 16 | 105 | 1.6 | 6.4 | 0.00 | 0.03 | 0.00 | 79 | 1013.9 |
| 20260506225031 | 16 | 104 | 3.2 | 6.4 | 0.00 | 0.03 | 0.00 | 79 | 1013.9 |
| 20260506224549 | 16 | 121 | 3.2 | 6.4 | 0.00 | 0.03 | 0.00 | 79 | 1013.9 |
| 20260506224031 | 16 | 111 | 3.2 | 6.4 | 0.00 | 0.03 | 0.00 | 78 | 1014.0 |
| 20260506223534 | 16 | 117 | 3.2 | 9.7 | 0.00 | 0.03 | 0.00 | 78 | 1014.1 |
| 20260506223050 | 16 | 115 | 3.2 | 9.7 | 0.00 | 0.03 | 0.00 | 77 | 1014.0 |
| 20260506222532 | 16 | 121 | 1.6 | 4.8 | 0.00 | 0.03 | 0.00 | 77 | 1014.0 |
| 20260506222035 | 16 | 83 | 1.6 | 4.8 | 0.00 | 0.03 | 0.00 | 77 | 1014.1 |
| 20260506221558 | 16 | 118 | 0.0 | 6.4 | 0.00 | 0.03 | 0.00 | 77 | 1014.1 |
| 20260506221030 | 16 | 0 | 0.0 | 9.7 | 0.00 | 0.03 | 0.00 | 77 | 1014.0 |
| 20260506220534 | 16 | 82 | 4.8 | 9.7 | 0.00 | 0.03 | 0.00 | 76 | 1014.0 |
| 20260506220048 | 16 | 92 | 3.2 | 9.7 | 0.00 | 0.03 | 0.00 | 76 | 1013.9 |
| 20260506215531 | 16 | 93 | 4.8 | 9.7 | 0.00 | 0.03 | 0.03 | 76 | 1014.0 |
| 20260506215031 | 16 | 120 | 3.2 | 8.0 | 0.00 | 0.03 | 0.03 | 76 | 1014.0 |
| 20260506214546 | 16 | 155 | 1.6 | 8.0 | 0.00 | 0.03 | 0.03 | 77 | 1014.0 |
| 20260506214030 | 16 | 155 | 4.8 | 16.1 | 0.00 | 0.03 | 0.03 | 77 | 1013.9 |
| 20260506213531 | 16 | 130 | 8.0 | 16.1 | 0.00 | 0.03 | 0.03 | 77 | 1013.9 |
| 20260506213048 | 16 | 142 | 6.4 | 24.1 | 0.00 | 0.03 | 0.03 | 77 | 1013.9 |
| 20260506212531 | 16 | 113 | 11.3 | 29.0 | 0.00 | 0.03 | 0.03 | 77 | 1013.7 |
| 20260506212031 | 16 | 117 | 16.1 | 29.0 | 0.00 | 0.03 | 0.03 | 77 | 1013.6 |
| 20260506211604 | 16 | 115 | 19.3 | 29.0 | 0.00 | 0.03 | 0.03 | 77 | 1013.6 |
| 20260506211031 | 16 | 119 | 17.7 | 32.2 | 0.00 | 0.03 | 0.03 | 77 | 1013.7 |
| 20260506210531 | 16 | 114 | 16.1 | 32.2 | 0.00 | 0.03 | 0.03 | 77 | 1013.9 |
| 20260506210049 | 16 | 108 | 17.7 | 30.6 | 0.00 | 0.03 | 0.03 | 78 | 1013.9 |
| 20260506205535 | 16 | 99 | 14.5 | 30.6 | 0.00 | 0.03 | 0.03 | 80 | 1013.9 |
| 20260506205030 | 16 | 110 | 19.3 | 30.6 | 0.00 | 0.03 | 0.03 | 81 | 1013.9 |
| 20260506204548 | 15 | 123 | 12.9 | 19.3 | 0.00 | 0.03 | 0.03 | 82 | 1013.8 |
| 20260506204031 | 15 | 105 | 11.3 | 16.1 | 0.00 | 0.03 | 0.03 | 82 | 1013.9 |
| 20260506203531 | 15 | 106 | 8.0 | 16.1 | 0.00 | 0.03 | 0.03 | 82 | 1013.9 |
| 20260506203048 | 15 | 114 | 9.7 | 16.1 | 0.00 | 0.03 | 0.03 | 82 | 1013.8 |
| 20260506202531 | 16 | 86 | 8.0 | 16.1 | 0.00 | 0.03 | 0.03 | 81 | 1013.7 |
| 20260506202031 | 16 | 101 | 9.7 | 16.1 | 0.00 | 0.03 | 0.03 | 80 | 1013.6 |
| 20260506201549 | 16 | 110 | 8.0 | 17.7 | 0.00 | 0.03 | 0.03 | 78 | 1013.6 |
| 20260506201032 | 16 | 117 | 11.3 | 17.7 | 0.00 | 0.03 | 0.03 | 78 | 1013.6 |
| 20260506200531 | 16 | 125 | 9.7 | 16.1 | 0.00 | 0.03 | 0.03 | 77 | 1013.5 |
| 20260506200052 | 16 | 110 | 8.0 | 24.1 | 0.00 | 0.03 | 0.03 | 77 | 1013.4 |
| 20260506195531 | 16 | 119 | 16.1 | 24.1 | 0.00 | 0.03 | 0.03 | 77 | 1013.5 |
| 20260506195032 | 16 | 118 | 9.7 | 24.1 | 0.00 | 0.03 | 0.03 | 77 | 1013.4 |
| 20260506194553 | 16 | 113 | 11.3 | 24.1 | 0.00 | 0.03 | 0.03 | 77 | 1013.3 |
| 20260506194031 | 16 | 114 | 12.9 | 24.1 | 0.00 | 0.03 | 0.03 | 77 | 1013.3 |
| 20260506193530 | 16 | 125 | 12.9 | 20.9 | 0.00 | 0.03 | 0.03 | 77 | 1013.2 |
| 20260506193047 | 16 | 111 | 11.3 | 20.9 | 0.00 | 0.03 | 0.03 | 77 | 1013.2 |
| 20260506192530 | 16 | 117 | 12.9 | 19.3 | 0.00 | 0.03 | 0.03 | 77 | 1013.2 |
| 20260506192030 | 16 | 112 | 11.3 | 19.3 | 0.00 | 0.03 | 0.03 | 76 | 1013.2 |
| 20260506191546 | 16 | 106 | 9.7 | 25.7 | 0.00 | 0.03 | 0.03 | 76 | 1013.1 |
| 20260506191031 | 16 | 118 | 16.1 | 27.4 | 0.00 | 0.03 | 0.03 | 76 | 1013.1 |
| 20260506190532 | 16 | 119 | 19.3 | 27.4 | 0.00 | 0.03 | 0.03 | 76 | 1013.0 |
| 20260506190047 | 16 | 117 | 16.1 | 24.1 | 0.00 | 0.03 | 0.03 | 76 | 1012.9 |
| 20260506185530 | 16 | 107 | 12.9 | 22.5 | 0.00 | 0.03 | 0.03 | 75 | 1012.9 |
| 20260506185031 | 16 | 113 | 8.0 | 14.5 | 0.00 | 0.03 | 0.03 | 75 | 1012.9 |
| 20260506184549 | 16 | 112 | 8.0 | 20.9 | 0.00 | 0.03 | 0.03 | 75 | 1012.9 |
| 20260506184032 | 16 | 111 | 9.7 | 24.1 | 0.00 | 0.03 | 0.03 | 74 | 1012.8 |
| 20260506183531 | 16 | 110 | 11.3 | 29.0 | 0.00 | 0.03 | 0.03 | 74 | 1012.7 |
| 20260506183041 | 16 | 125 | 16.1 | 30.6 | 0.00 | 0.03 | 0.03 | 74 | 1012.6 |
| 20260506182530 | 16 | 112 | 16.1 | 30.6 | 0.00 | 0.03 | 0.03 | 74 | 1012.5 |
| 20260506182031 | 16 | 128 | 19.3 | 30.6 | 0.00 | 0.03 | 0.03 | 74 | 1012.3 |
| 20260506181548 | 16 | 110 | 19.3 | 33.8 | 0.00 | 0.03 | 0.03 | 74 | 1012.3 |
| 20260506181031 | 16 | 113 | 19.3 | 33.8 | 0.00 | 0.03 | 0.03 | 74 | 1012.4 |
| 20260506180531 | 16 | 109 | 19.3 | 37.0 | 0.00 | 0.03 | 0.03 | 73 | 1012.4 |
| 20260506180049 | 16 | 127 | 19.3 | 37.0 | 0.00 | 0.03 | 0.03 | 73 | 1012.4 |
| 20260506175530 | 16 | 121 | 19.3 | 37.0 | 0.00 | 0.03 | 0.03 | 73 | 1012.4 |
| 20260506175030 | 16 | 130 | 19.3 | 37.0 | 0.00 | 0.03 | 0.03 | 73 | 1012.3 |
| 20260506174548 | 16 | 122 | 16.1 | 33.8 | 0.00 | 0.03 | 0.03 | 73 | 1012.3 |
| 20260506174031 | 17 | 143 | 17.7 | 32.2 | 0.00 | 0.03 | 0.03 | 72 | 1012.3 |
| 20260506173531 | 17 | 121 | 17.7 | 30.6 | 0.00 | 0.03 | 0.03 | 73 | 1012.3 |
| 20260506173100 | 17 | 107 | 16.1 | 29.0 | 0.00 | 0.03 | 0.03 | 72 | 1012.2 |
| 20260506172531 | 17 | 103 | 14.5 | 41.8 | 0.00 | 0.03 | 0.03 | 72 | 1012.3 |
| 20260506172031 | 17 | 115 | 22.5 | 41.8 | 0.00 | 0.03 | 0.03 | 72 | 1012.3 |
| 20260506171551 | 17 | 109 | 20.9 | 35.4 | 0.00 | 0.03 | 0.03 | 72 | 1012.4 |
| 20260506171031 | 17 | 126 | 20.9 | 35.4 | 0.00 | 0.03 | 0.03 | 71 | 1012.3 |
| 20260506170531 | 17 | 134 | 22.5 | 37.0 | 0.00 | 0.03 | 0.03 | 72 | 1012.2 |
| 20260506170100 | 17 | 113 | 17.7 | 37.0 | 0.00 | 0.03 | 0.03 | 73 | 1012.2 |
| 20260506165532 | 17 | 111 | 19.3 | 35.4 | 0.00 | 0.03 | 0.03 | 73 | 1012.2 |
| 20260506165031 | 17 | 130 | 19.3 | 32.2 | 0.00 | 0.03 | 0.03 | 73 | 1012.3 |
| 20260506164606 | 17 | 121 | 19.3 | 32.2 | 0.00 | 0.03 | 0.03 | 73 | 1012.3 |
| 20260506164030 | 17 | 124 | 14.5 | 37.0 | 0.00 | 0.03 | 0.03 | 73 | 1012.3 |
| 20260506163530 | 17 | 124 | 20.9 | 37.0 | 0.00 | 0.03 | 0.03 | 72 | 1012.3 |
| 20260506163047 | 18 | 138 | 19.3 | 37.0 | 0.00 | 0.03 | 0.03 | 71 | 1012.4 |
| 20260506162530 | 18 | 106 | 20.9 | 37.0 | 0.00 | 0.03 | 0.03 | 71 | 1012.4 |
| 20260506162030 | 18 | 121 | 22.5 | 33.8 | 0.00 | 0.03 | 0.03 | 70 | 1012.3 |
| 20260506161551 | 18 | 128 | 16.1 | 38.6 | 0.00 | 0.03 | 0.03 | 70 | 1012.3 |
| 20260506161032 | 18 | 117 | 20.9 | 41.8 | 0.00 | 0.03 | 0.03 | 69 | 1012.3 |
| 20260506160531 | 18 | 118 | 24.1 | 41.8 | 0.00 | 0.03 | 0.03 | 69 | 1012.1 |
| 20260506160055 | 18 | 116 | 14.5 | 37.0 | 0.00 | 0.03 | 0.03 | 70 | 1012.3 |
| 20260506155532 | 18 | 128 | 17.7 | 41.8 | 0.00 | 0.03 | 0.03 | 69 | 1012.2 |
| 20260506155031 | 18 | 131 | 17.7 | 46.7 | 0.00 | 0.03 | 0.03 | 68 | 1012.2 |
| 20260506154554 | 18 | 134 | 22.5 | 46.7 | 0.00 | 0.03 | 0.03 | 68 | 1012.3 |
| 20260506154032 | 18 | 120 | 24.1 | 41.8 | 0.00 | 0.03 | 0.03 | 69 | 1012.2 |
| 20260506153531 | 18 | 111 | 20.9 | 37.0 | 0.00 | 0.03 | 0.03 | 69 | 1012.3 |
| 20260506153042 | 18 | 104 | 22.5 | 38.6 | 0.00 | 0.03 | 0.03 | 69 | 1012.3 |
| 20260506152534 | 18 | 114 | 22.5 | 38.6 | 0.00 | 0.03 | 0.03 | 69 | 1012.3 |
| 20260506152031 | 18 | 108 | 19.3 | 41.8 | 0.00 | 0.03 | 0.03 | 68 | 1012.3 |
| 20260506151548 | 18 | 107 | 24.1 | 41.8 | 0.00 | 0.03 | 0.03 | 68 | 1012.2 |
| 20260506151032 | 18 | 117 | 19.3 | 41.8 | 0.00 | 0.03 | 0.03 | 69 | 1012.3 |
| 20260506150534 | 18 | 119 | 20.9 | 41.8 | 0.00 | 0.03 | 0.03 | 69 | 1012.3 |
| 20260506150048 | 19 | 119 | 25.7 | 41.8 | 0.00 | 0.03 | 0.03 | 68 | 1012.3 |
| 20260506145531 | 19 | 115 | 20.9 | 33.8 | 0.00 | 0.03 | 0.03 | 69 | 1012.2 |
| 20260506145031 | 18 | 132 | 19.3 | 29.0 | 0.00 | 0.03 | 0.03 | 70 | 1012.2 |
| 20260506144548 | 18 | 120 | 14.5 | 27.4 | 0.00 | 0.03 | 0.03 | 71 | 1012.2 |
| 20260506144032 | 18 | 128 | 14.5 | 27.4 | 0.00 | 0.03 | 0.03 | 70 | 1012.3 |
| 20260506143531 | 18 | 121 | 16.1 | 27.4 | 0.00 | 0.03 | 0.03 | 71 | 1012.4 |
| 20260506143046 | 18 | 130 | 14.5 | 33.8 | 0.00 | 0.03 | 0.03 | 71 | 1012.4 |
| 20260506142534 | 18 | 129 | 16.1 | 33.8 | 0.00 | 0.03 | 0.03 | 71 | 1012.4 |
| 20260506142031 | 18 | 113 | 14.5 | 30.6 | 0.00 | 0.03 | 0.03 | 73 | 1012.3 |
| 20260506141603 | 18 | 126 | 16.1 | 30.6 | 0.00 | 0.03 | 0.03 | 74 | 1012.3 |
| 20260506141034 | 17 | 117 | 20.9 | 30.6 | 0.00 | 0.03 | 0.03 | 73 | 1012.4 |
| 20260506140531 | 17 | 115 | 17.7 | 32.2 | 0.00 | 0.03 | 0.03 | 74 | 1012.4 |
| 20260506140052 | 17 | 113 | 14.5 | 33.8 | 0.00 | 0.03 | 0.03 | 73 | 1012.3 |
| 20260506135530 | 17 | 130 | 17.7 | 40.2 | 0.00 | 0.03 | 0.03 | 72 | 1012.5 |
| 20260506135033 | 18 | 117 | 22.5 | 40.2 | 0.00 | 0.03 | 0.03 | 70 | 1012.5 |
| 20260506134549 | 18 | 129 | 11.3 | 30.6 | 0.00 | 0.03 | 0.03 | 69 | 1012.5 |
| 20260506134034 | 18 | 117 | 14.5 | 33.8 | 0.00 | 0.03 | 0.03 | 69 | 1012.5 |
| 20260506133532 | 18 | 107 | 20.9 | 33.8 | 0.00 | 0.03 | 0.03 | 68 | 1012.7 |
| 20260506133048 | 19 | 139 | 16.1 | 35.4 | 0.00 | 0.03 | 0.03 | 66 | 1012.8 |
| 20260506132530 | 19 | 113 | 17.7 | 35.4 | 0.00 | 0.03 | 0.03 | 67 | 1012.7 |
| 20260506132030 | 19 | 121 | 20.9 | 35.4 | 0.00 | 0.03 | 0.03 | 66 | 1012.7 |
| 20260506131547 | 18 | 111 | 17.7 | 33.8 | 0.00 | 0.03 | 0.03 | 67 | 1012.8 |
| 20260506131031 | 18 | 115 | 19.3 | 35.4 | 0.00 | 0.03 | 0.03 | 67 | 1012.8 |
| 20260506130531 | 19 | 122 | 17.7 | 35.4 | 0.00 | 0.03 | 0.03 | 66 | 1012.9 |
| 20260506130048 | 19 | 119 | 20.9 | 32.2 | 0.00 | 0.03 | 0.03 | 65 | 1013.0 |
| 20260506125531 | 19 | 146 | 16.1 | 33.8 | 0.00 | 0.03 | 0.03 | 67 | 1012.9 |
| 20260506125033 | 18 | 142 | 16.1 | 33.8 | 0.00 | 0.03 | 0.03 | 68 | 1013.0 |
| 20260506124549 | 18 | 117 | 20.9 | 37.0 | 0.00 | 0.03 | 0.03 | 67 | 1013.1 |
| 20260506124032 | 18 | 105 | 16.1 | 41.8 | 0.00 | 0.03 | 0.03 | 70 | 1013.1 |
| 20260506123531 | 18 | 126 | 19.3 | 41.8 | 0.00 | 0.03 | 0.03 | 70 | 1013.2 |
| 20260506123052 | 18 | 107 | 19.3 | 40.2 | 0.00 | 0.03 | 0.03 | 69 | 1013.2 |
| 20260506122531 | 18 | 121 | 14.5 | 32.2 | 0.00 | 0.03 | 0.03 | 71 | 1013.1 |
| 20260506122030 | 17 | 124 | 17.7 | 37.0 | 0.00 | 0.03 | 0.03 | 71 | 1013.2 |
| 20260506121559 | 17 | 124 | 19.3 | 37.0 | 0.00 | 0.03 | 0.03 | 72 | 1013.1 |
| 20260506121031 | 17 | 138 | 20.9 | 40.2 | 0.00 | 0.03 | 0.03 | 71 | 1013.0 |
| 20260506120531 | 17 | 132 | 20.9 | 45.1 | 0.00 | 0.03 | 0.03 | 71 | 1013.1 |
| 20260506120115 | 17 | 109 | 25.7 | 48.3 | 0.00 | 0.03 | 0.03 | 70 | 1013.1 |
| 20260506115532 | 18 | 110 | 19.3 | 48.3 | 0.00 | 0.03 | 0.03 | 70 | 1013.1 |
| 20260506115032 | 18 | 117 | 19.3 | 43.5 | 0.00 | 0.03 | 0.03 | 70 | 1013.0 |
| 20260506114548 | 18 | 123 | 24.1 | 43.5 | 0.00 | 0.03 | 0.03 | 70 | 1013.0 |
| 20260506114031 | 17 | 110 | 19.3 | 41.8 | 0.00 | 0.03 | 0.03 | 70 | 1013.1 |
| 20260506113530 | 17 | 113 | 22.5 | 41.8 | 0.00 | 0.03 | 0.03 | 70 | 1013.2 |
| 20260506113047 | 17 | 123 | 20.9 | 45.1 | 0.00 | 0.03 | 0.03 | 70 | 1013.2 |
| 20260506112532 | 17 | 119 | 20.9 | 45.1 | 0.00 | 0.03 | 0.03 | 69 | 1013.2 |
| 20260506112031 | 17 | 113 | 19.3 | 43.5 | 0.00 | 0.03 | 0.03 | 69 | 1013.1 |
| 20260506111550 | 17 | 117 | 22.5 | 43.5 | 0.00 | 0.03 | 0.03 | 69 | 1013.2 |
| 20260506111031 | 17 | 109 | 22.5 | 43.5 | 0.00 | 0.03 | 0.03 | 68 | 1013.0 |
| 20260506110532 | 17 | 128 | 16.1 | 38.6 | 0.00 | 0.03 | 0.03 | 69 | 1013.2 |
| 20260506110041 | 17 | 124 | 20.9 | 41.8 | 0.00 | 0.03 | 0.03 | 69 | 1013.2 |
| 20260506105531 | 17 | 128 | 22.5 | 49.9 | 0.00 | 0.03 | 0.03 | 69 | 1013.2 |
| 20260506105030 | 17 | 119 | 27.4 | 49.9 | 0.00 | 0.03 | 0.03 | 69 | 1013.2 |
| 20260506104549 | 17 | 119 | 22.5 | 41.8 | 0.00 | 0.03 | 0.03 | 70 | 1013.1 |
| 20260506104031 | 17 | 124 | 20.9 | 46.7 | 0.00 | 0.03 | 0.03 | 69 | 1013.1 |
| 20260506103531 | 17 | 134 | 29.0 | 46.7 | 0.00 | 0.03 | 0.03 | 68 | 1013.1 |
| 20260506103049 | 17 | 109 | 16.1 | 37.0 | 0.00 | 0.03 | 0.03 | 68 | 1013.1 |
| 20260506102532 | 17 | 98 | 14.5 | 37.0 | 0.00 | 0.03 | 0.03 | 67 | 1013.3 |
| 20260506102031 | 17 | 121 | 24.1 | 40.2 | 0.00 | 0.03 | 0.03 | 65 | 1013.2 |
| 20260506101549 | 17 | 123 | 25.7 | 40.2 | 0.00 | 0.03 | 0.03 | 64 | 1013.2 |
| 20260506101033 | 17 | 113 | 19.3 | 48.3 | 0.00 | 0.03 | 0.03 | 64 | 1013.1 |
| 20260506100531 | 17 | 119 | 24.1 | 48.3 | 0.00 | 0.03 | 0.03 | 62 | 1012.9 |
| 20260506100047 | 17 | 126 | 24.1 | 46.7 | 0.00 | 0.03 | 0.03 | 62 | 1013.0 |
| 20260506095531 | 18 | 117 | 24.1 | 51.5 | 0.00 | 0.03 | 0.03 | 62 | 1012.9 |
| 20260506095033 | 18 | 115 | 20.9 | 51.5 | 0.00 | 0.03 | 0.03 | 60 | 1012.9 |
| 20260506094548 | 18 | 136 | 27.4 | 51.5 | 0.00 | 0.03 | 0.03 | 59 | 1012.7 |
| 20260506094031 | 18 | 120 | 20.9 | 46.7 | 0.00 | 0.03 | 0.03 | 59 | 1012.5 |
| 20260506093531 | 18 | 126 | 20.9 | 45.1 | 0.00 | 0.03 | 0.03 | 61 | 1012.5 |
| 20260506093052 | 18 | 123 | 24.1 | 40.2 | 0.00 | 0.03 | 0.03 | 61 | 1012.5 |
| 20260506092531 | 17 | 113 | 20.9 | 37.0 | 0.00 | 0.03 | 0.03 | 62 | 1012.5 |
| 20260506092032 | 17 | 120 | 19.3 | 35.4 | 0.00 | 0.03 | 0.03 | 62 | 1012.7 |
| 20260506091549 | 17 | 121 | 17.7 | 40.2 | 0.00 | 0.03 | 0.03 | 65 | 1012.8 |
| 20260506091030 | 17 | 120 | 19.3 | 46.7 | 0.00 | 0.03 | 0.03 | 65 | 1012.9 |
| 20260506090531 | 17 | 104 | 22.5 | 46.7 | 0.00 | 0.03 | 0.03 | 65 | 1012.9 |
| 20260506090047 | 17 | 132 | 19.3 | 45.1 | 0.00 | 0.03 | 0.03 | 66 | 1012.9 |
| 20260506085530 | 16 | 134 | 20.9 | 45.1 | 0.00 | 0.03 | 0.03 | 68 | 1012.9 |
| 20260506085030 | 16 | 123 | 20.9 | 40.2 | 0.00 | 0.03 | 0.03 | 69 | 1012.8 |
| 20260506084547 | 16 | 109 | 20.9 | 38.6 | 0.00 | 0.03 | 0.03 | 70 | 1012.8 |
| 20260506084034 | 16 | 113 | 20.9 | 37.0 | 0.00 | 0.03 | 0.03 | 70 | 1012.8 |
| 20260506083532 | 16 | 101 | 16.1 | 30.6 | 0.00 | 0.03 | 0.03 | 73 | 1012.8 |
| 20260506083047 | 16 | 125 | 17.7 | 37.0 | 0.00 | 0.03 | 0.03 | 73 | 1012.9 |
| 20260506082531 | 16 | 115 | 19.3 | 37.0 | 0.00 | 0.03 | 0.03 | 74 | 1012.7 |
| 20260506082033 | 16 | 116 | 17.7 | 40.2 | 0.00 | 0.03 | 0.03 | 75 | 1012.8 |
| 20260506081551 | 16 | 109 | 22.5 | 40.2 | 0.00 | 0.03 | 0.03 | 75 | 1012.8 |
| 20260506081032 | 16 | 108 | 22.5 | 38.6 | 0.00 | 0.03 | 0.03 | 75 | 1012.7 |
| 20260506080532 | 16 | 103 | 19.3 | 35.4 | 0.00 | 0.03 | 0.03 | 75 | 1012.7 |
| 20260506073053 | 15 | 117 | 20.9 | 35.4 | 0.00 | 0.03 | 0.03 | 78 | 1012.8 |
| 20260506072532 | 15 | 128 | 16.1 | 35.4 | 0.00 | 0.03 | 0.03 | 79 | 1012.8 |
| 20260506072031 | 15 | 103 | 19.3 | 32.2 | 0.00 | 0.03 | 0.03 | 80 | 1012.9 |
| 20260506071552 | 14 | 121 | 16.1 | 29.0 | 0.00 | 0.03 | 0.03 | 82 | 1012.9 |
| 20260506071030 | 14 | 96 | 14.5 | 25.7 | 0.00 | 0.03 | 0.03 | 83 | 1012.9 |
| 20260506070530 | 14 | 98 | 19.3 | 25.7 | 0.00 | 0.03 | 0.03 | 82 | 1013.0 |
| 20260506070109 | 14 | 96 | 12.9 | 24.1 | 0.00 | 0.03 | 0.03 | 83 | 1012.9 |
| 20260506062034 | 13 | 97 | 12.9 | 25.7 | 0.00 | 0.03 | 0.03 | 86 | 1012.9 |
| 20260506061549 | 13 | 83 | 16.1 | 25.7 | 0.00 | 0.03 | 0.03 | 86 | 1012.8 |
| 20260506061034 | 13 | 109 | 16.1 | 24.1 | 0.00 | 0.03 | 0.03 | 85 | 1012.8 |
| 20260506060531 | 13 | 95 | 12.9 | 25.7 | 0.00 | 0.03 | 0.03 | 85 | 1012.9 |
| 20260506051035 | 13 | 98 | 11.3 | 20.9 | 0.00 | 0.05 | 0.03 | 84 | 1013.0 |
| 20260506050531 | 13 | 94 | 12.9 | 20.9 | 0.00 | 0.05 | 0.03 | 84 | 1013.0 |
| 20260506045031 | 13 | 88 | 8.0 | 19.3 | 0.00 | 0.08 | 0.03 | 85 | 1013.1 |